Tiempo atmosférico en la estación meteorológica de Jerez De Los Caballeros, Badajoz (381 m.)



Fecha
DESCASC
Temp. máxima en grados centígrados (hora)
DESCASC
Temp. mínima en grados centígrados (hora)
DESCASC
Temp. media en grados centígrados
DESCASC
Racha de viento máxima en m/sg (hora)
DESCASC
Velocidad máxima media en intervalos de 10 minutos(hora)
DESCASC
Precipitaciones diarias en mm
DESCASC
Precipitaciones de 00:00 a 06:00 en mm
DESCASC
Precipitaciones de 06:00 a 12:00 en mm
DESCASC
Precipitaciones de 12:00 a 18:00 en mm
DESCASC
Precipitaciones de 18:00 a 24:00 en mm
DESCASC
31-07-2019 36.3 (17:30) 12.8 (00:00) 24.5 14.17 (17:00) 9.17 (21:30) 0 0 0 0 0
25-07-2019 34.1 (16:30) 18.3 (00:00) 26.2 13.89 (22:20) 10 (22:20) 0 0 0 0 0
27-07-2019 25.4 (18:10) 15.3 (00:00) 20.3 13.89 (15:40) 9.72 (18:10) 0.2 0 0 0.2 0
22-07-2019 39.5 (17:40) 20.4 (00:00) 29.9 13.61 (17:50) 8.89 (17:50) 0 0 0 0 0
17-08-2019 37.3 (17:00) 15.9 (00:00) 26.6 13.33 (17:30) 8.61 (18:00) 0 0 0 0 0
09-08-2019 30 (15:10) 20.6 (00:00) 25.3 13.33 (16:20) 8.89 (16:00) 0 0 0 0 0
11-08-2019 27.7 (16:10) 14.3 (00:00) 21 13.06 (16:40) 8.61 (16:40) 0 0 0 0 0
23-07-2019 36.9 (17:40) 19.9 (00:00) 28.4 12.5 (19:40) 7.78 (19:10) 0 0 0 0 0
26-07-2019 28.8 (17:30) 14.4 (00:00) 21.6 12.5 (15:30) 7.78 (18:20) 0 0 0 0 0
05-08-2019 35.3 (17:50) 15.9 (00:00) 25.6 12.22 (17:50) 7.78 (18:50) 0 0 0 0 0
10-08-2019 32.5 (17:20) 16.5 (00:00) 24.5 11.94 (21:40) 7.78 (21:40) 0 0 0 0 0
08-08-2019 34.7 (17:30) 17.3 (00:00) 26 11.94 (22:20) 8.61 (22:00) 0 0 0 0 0
29-07-2019 30.9 (17:40) 14.1 (00:00) 22.5 11.67 (19:40) 7.5 (19:50) 0 0 0 0 0
03-08-2019 34.6 (17:30) 16.2 (00:00) 25.4 11.39 (16:50) 7.78 (15:10) 0 0 0 0 0
14-08-2019 36.8 (16:40) 14.7 (00:00) 25.7 11.39 (17:30) 6.94 (17:30) 0 0 0 0 0
06-08-2019 35 (17:00) 16.2 (00:00) 25.6 11.39 (18:10) 7.5 (17:40) 0 0 0 0 0
19-07-2019 38.9 (16:30) 19.4 (00:00) 29.2 11.39 (22:20) 7.78 (22:20) 0 0 0 0 0
24-07-2019 37.5 (18:00) 20.2 (00:00) 28.9 11.39 (20:20) 8.61 (20:20) 0 0 0 0 0
07-08-2019 29.3 (14:00) 17.8 (00:00) 23.5 11.11 (12:30) 5.56 (12:30) 0 0 0 0 0
12-08-2019 29.8 (17:20) 13.4 (00:00) 21.6 11.11 (00:10) 7.22 (00:20) 0 0 0 0 0
20-07-2019 37.8 (16:50) 18.7 (00:00) 28.3 11.11 (23:50) 8.33 (23:50) 0 0 0 0 0
04-08-2019 35.3 (18:10) 16.6 (00:00) 25.9 10.83 (22:10) 7.78 (20:50) 0 0 0 0 0
21-07-2019 38.9 (17:30) 18.6 (00:00) 28.8 10.56 (15:20) 6.39 (19:50) 0 0 0 0 0
01-08-2019 34.3 (17:20) 17 (00:00) 25.6 10.28 (23:20) 7.5 (22:40) 0 0 0 0 0
28-07-2019 32.2 (17:50) 14.2 (00:00) 23.2 10.28 (23:59) 7.5 (23:59) 0 0 0 0 0
16-08-2019 37.9 (17:00) 19.5 (00:00) 28.7 10.28 (17:30) 7.22 (17:30) 0 0 0 0 0
15-08-2019 38.3 (16:30) 18.3 (00:00) 28.3 9.72 (22:40) 6.39 (22:30) 0 0 0 0 0
02-08-2019 34.8 (17:20) 14.3 (00:00) 24.5 9.17 (15:30) 5.83 (17:40) 0 0 0 0 0
13-08-2019 35.1 (17:40) 14.3 (00:00) 24.7 9.17 (17:30) 5.28 (17:30) 0 0 0 0 0
30-07-2019 31.5 (18:00) 12.3 (00:00) 21.9 8.89 (13:50) 5.28 (13:20) 0 0 0 0 0

Gráficas

Temp. máximas Temp. mínimas Temp. medias Precipitaciones Rachas de viento máximas Velocidades máximas media en intervalos de 10 minutos

Datos horarios

Fecha y hora oficial Temperatura (ºC) Velocidad del viento (km/h) Dirección del viento Racha (km/h) Dirección de racha Precipitación (mm) Presión (hPa) Tendencia (hPa) Humedad (%)
2019-08-17 23:00:00 28.2 15 Oeste 26 Oeste 0 969.9 0.9 24
2019-08-17 22:00:00 30.1 18 Oeste 28 Oeste 0 969.4 0.3 16
2019-08-17 21:00:00 33.3 22 Oeste 39 Sudoeste 0 969 -0.4 12
2019-08-17 20:00:00 35.3 28 Oeste 44 Oeste 0 969 -0.7 10
2019-08-17 19:00:00 36.2 28 Oeste 46 Sudoeste 0 969.1 -1 10
2019-08-17 18:00:00 36.8 31 Sudoeste 48 Sudoeste 0 969.4 -1.2 12
2019-08-17 17:00:00 37 24 Sudoeste 41 Sudoeste 0 969.7 -1.5 15
2019-08-17 16:00:00 36.5 24 Sudoeste 44 Sudoeste 0 970.1 -1.7 17
2019-08-17 15:00:00 35.7 27 Sudoeste 42 Oeste 0 970.6 -1.6 17
2019-08-17 14:00:00 35.2 25 Sudoeste 37 Sudoeste 0 971.2 -1.2 17
2019-08-17 13:00:00 33.5 14 Sudoeste 23 Sudoeste 0 971.8 -0.7 17
2019-08-17 12:00:00 29.2 5 Sudoeste 10 Sudoeste 0 972.2 -0.3 28
2019-08-17 11:00:00 25.2 3 Sudoeste 6 Sudoeste 0 972.4 0.2 35
2019-08-17 10:00:00 21.4 3 Sudeste 9 Este 0 972.5 0.3 45
2019-08-17 09:00:00 19 2 Este 7 Este 0 972.5 0.6 52
2019-08-17 08:00:00 16.2 4 Nordeste 7 Este 0 972.2 -0.2 61
2019-08-17 07:00:00 18.2 4 Oeste 9 Sur 0 972.2 -0.3 55
2019-08-17 06:00:00 18.6 3 Sudoeste 13 Sudoeste 0 971.9 -0.7 52
2019-08-17 05:00:00 19.6 11 Sudoeste 13 Sudoeste 0 972.4 -0.5 48
2019-08-17 04:00:00 21.1 7 Sudoeste 9 Sudoeste 0 972.5 -0.5 45
2019-08-17 03:00:00 22.8 6 Oeste 13 Oeste 0 972.6 -0.2 40
2019-08-17 02:00:00 23.8 9 Oeste 19 Oeste 0 972.9 0.6 38
2019-08-17 01:00:00 25.1 14 Sudoeste 21 Sudoeste 0 973 1.5 36
2019-08-17 00:00:00 27.3 13 Sudoeste 25 Oeste 0 972.8 1.7 32
2019-08-16 23:00:00 28.8 18 Oeste 28 Oeste 0 972.3 1.4 29
2019-08-16 22:00:00 31.4 20 Oeste 29 Oeste 0 971.5 0.5 20
2019-08-16 21:00:00 34.4 21 Oeste 33 Sudoeste 0 971.1 -0.2 17
2019-08-16 20:00:00 36.5 20 Oeste 34 Sudoeste 0 970.9 -0.7 16
2019-08-16 19:00:00 37.2 22 Sudoeste 36 Sudoeste 0 971 -1.1 14
2019-08-16 18:00:00 37.4 21 Oeste 37 Sudoeste 0 971.3 -1.2 14
2019-08-16 17:00:00 37.9 22 Sudoeste 35 Sudoeste 0 971.6 -1.3 14
2019-08-16 16:00:00 37.3 16 Oeste 28 Sur 0 972.1 -1.3 15
2019-08-16 15:00:00 36.7 13 Sudoeste 28 Sudoeste 0 972.5 -1.2 17
2019-08-16 14:00:00 35.4 13 Sudoeste 33 Sudoeste 0 972.9 -0.8 20
2019-08-16 13:00:00 33 11 Oeste 22 Sudoeste 0 973.4 -0.5 25
2019-08-16 12:00:00 30.3 6 Sudoeste 11 Oeste 0 973.7 0 32
2019-08-16 11:00:00 26.5 4 Sudoeste 8 Sudoeste 0 973.7 0.3 44
2019-08-16 10:00:00 23.7 3 Sur 7 Nordeste 0 973.9 0.9 52
2019-08-16 09:00:00 20.5 4 Sudoeste 6 Sudoeste 0 973.7 0.9 60
2019-08-16 08:00:00 19.6 3 Sudoeste 8 Sudoeste 0 973.4 0.3 64
2019-08-16 07:00:00 19.9 9 Sudoeste 10 Sudoeste 0 973 -0.3 61
2019-08-16 06:00:00 20.6 6 Sudoeste 13 Oeste 0 972.8 -0.7 59
2019-08-16 05:00:00 21.3 7 Oeste 13 Oeste 0 973.1 -0.5 57
2019-08-16 04:00:00 22.3 12 Oeste 19 Sudoeste 0 973.3 -0.3 51
2019-08-16 03:00:00 23.8 14 Oeste 17 Oeste 0 973.5 0.2 45
2019-08-16 02:00:00 25.2 9 Sudoeste 12 Oeste 0 973.6 0.8 39
2019-08-16 01:00:00 26.5 9 Sudoeste 18 Sudoeste 0 973.6 1.3 34
2019-08-16 00:00:00 28.6 12 Sudoeste 32 Noroeste 0 973.3 1.4 29
2019-08-15 23:00:00 30.7 21 Oeste 35 Oeste 0 972.8 1.1 25
2019-08-15 22:00:00 32.9 12 Noroeste 22 Noroeste 0 972.3 0.5 19
2019-08-15 21:00:00 34.9 20 Noroeste 28 Noroeste 0 971.9 0.1 18
2019-08-15 20:00:00 36.9 17 Oeste 33 Oeste 0 971.7 -0.3 14
2019-08-15 19:00:00 37.4 18 Oeste 35 Oeste 0 971.8 -0.8 14
2019-08-15 18:00:00 38.2 19 Oeste 28 Oeste 0 971.8 -1.2 14
2019-08-15 17:00:00 38.1 16 Sudoeste 33 Oeste 0 972 -1.7 15
2019-08-15 16:00:00 37.6 17 Sudoeste 33 Sudoeste 0 972.6 -1.4 14
2019-08-15 15:00:00 37.1 21 Sudoeste 31 Sudoeste 0 973 -1.4 14
2019-08-15 14:00:00 35.7 6 Este 21 Sur 0 973.7 -0.8 15
2019-08-15 13:00:00 34.4 4 Norte 12 Este 0 974 -0.5 20
2019-08-15 12:00:00 31.3 4 Sudeste 11 Este 0 974.4 -0.2 29
2019-08-15 11:00:00 27.3 4 Este 10 Este 0 974.5 0.1 38
2019-08-15 10:00:00 22.8 7 Este 10 Nordeste 0 974.5 0.6 46
2019-08-15 09:00:00 20.2 4 Este 9 Este 0 974.6 0.6 54
2019-08-15 08:00:00 18.7 4 Sudeste 7 Sudeste 0 974.4 0.7 60
2019-08-15 07:00:00 19.3 5 Nordeste 6 Este 0 973.9 0.1 56
2019-08-15 06:00:00 20.5 4 Sur 8 Sudoeste 0 974 0 56
2019-08-15 05:00:00 21.3 5 Sur 8 Sur 0 973.7 -0.7 48
2019-08-15 04:00:00 22.8 4 Sudoeste 9 Sudoeste 0 973.8 -0.6 45
2019-08-15 03:00:00 23.3 3 Oeste 7 Sudeste 0 974 -0.3 39
2019-08-15 02:00:00 24.4 5 Nordeste 6 Nordeste 0 974.4 0.6 34
2019-08-15 01:00:00 25.5 4 Nordeste 10 Este 0 974.4 1.2 26
2019-08-15 00:00:00 27.7 3 Sudoeste 27 Oeste 0 974.3 1.5 26
2019-08-14 23:00:00 30.3 13 Noroeste 27 Noroeste 0 973.8 1 18
2019-08-14 22:00:00 31.3 19 Noroeste 24 Noroeste 0 973.2 0.3 14
2019-08-14 21:00:00 33.4 14 Noroeste 25 Noroeste 0 972.8 -0.2 13
2019-08-14 20:00:00 34.8 13 Noroeste 23 Noroeste 0 972.8 -0.5 11
2019-08-14 19:00:00 35.8 15 Noroeste 36 Noroeste 0 972.9 -0.6 10
2019-08-14 18:00:00 36.4 15 Oeste 41 Oeste 0 973 -1 10
2019-08-14 17:00:00 35.9 17 Oeste 36 Sudoeste 0 973.3 -1.4 10
2019-08-14 16:00:00 36.5 12 Oeste 27 Sudoeste 0 973.5 -1.8 11
2019-08-14 15:00:00 35.7 12 Sudoeste 21 Sudoeste 0 974 -1.4 12
2019-08-14 14:00:00 34.8 10 Este 18 Oeste 0 974.7 -0.7 11
2019-08-14 13:00:00 32.7 9 Este 16 Nordeste 0 975.3 -0.1 12
2019-08-14 12:00:00 30.3 5 Nordeste 10 Este 0 975.4 0.2 16
2019-08-14 11:00:00 26.2 5 Este 12 Este 0 975.4 0.6 24
2019-08-14 10:00:00 20.6 6 Este 9 Este 0 975.4 1 33
2019-08-14 09:00:00 17.2 0 Calma 8 Este 0 975.2 0.8 47
2019-08-14 08:00:00 14.7 5 Este 9 Este 0 974.8 0.4 56
2019-08-14 07:00:00 15.1 6 Este 10 Este 0 974.4 -0.1 53
2019-08-14 06:00:00 16.9 7 Este 8 Este 0 974.4 -0.1 42
2019-08-14 05:00:00 18.1 8 Este 9 Este 0 974.4 -0.3 38
2019-08-14 04:00:00 20.2 3 Sudeste 6 Este 0 974.5 0.1 33
2019-08-14 03:00:00 21.1 6 Sur 8 Sudoeste 0 974.5 0.6 30
2019-08-14 02:00:00 22.2 3 Sudoeste 6 Sudoeste 0 974.7 1.2 26
2019-08-14 01:00:00 23 5 Sudoeste 11 Sur 0 974.4 1.6 24
2019-08-14 00:00:00 25.6 5 Sudoeste 18 Noroeste 0 973.9 1.5 16
2019-08-13 23:00:00 26.4 3 Este 20 Norte 0 973.5 1.4 14
2019-08-13 22:00:00 28.9 16 Norte 24 Norte 0 972.8 0.7 11
2019-08-13 21:00:00 30.9 15 Norte 28 Norte 0 972.4 0.3 10
2019-08-13 20:00:00 32.7 17 Norte 27 Norte 0 972.1 -0.4 10
2019-08-13 19:00:00 33.4 14 Noroeste 24 Noroeste 0 972.1 -1 10
2019-08-13 18:00:00 34.3 13 Oeste 33 Sudoeste 0 972.1 -1.4 10
2019-08-13 17:00:00 34.2 12 Sur 30 Sudoeste 0 972.5 -1.4 11
2019-08-13 16:00:00 33.4 7 Sudoeste 30 Sudoeste 0 973.1 -1.2 12
2019-08-13 15:00:00 32.7 10 Sur 22 Sur 0 973.5 -1.2 12
2019-08-13 14:00:00 31.7 10 Sudoeste 17 Sur 0 973.9 -0.8 12
2019-08-13 13:00:00 29.4 8 Este 14 Este 0 974.3 -0.1 16
2019-08-13 12:00:00 26.4 3 Sudoeste 10 Sudoeste 0 974.7 0.6 23
2019-08-13 11:00:00 23 4 Sudeste 8 Este 0 974.7 1 29
2019-08-13 10:00:00 18.7 5 Este 11 Este 0 974.4 1 41
2019-08-13 09:00:00 16.5 4 Este 8 Este 0 974.1 1 39
2019-08-13 08:00:00 14.7 4 Este 5 Sudeste 0 973.7 0.6 47
2019-08-13 07:00:00 14.9 3 Sudoeste 8 Sudoeste 0 973.4 0 48
2019-08-13 06:00:00 16 3 Este 11 Sudoeste 0 973.1 -0.7 43
2019-08-13 05:00:00 17.1 7 Sudoeste 9 Sudoeste 0 973.1 -0.9 35
2019-08-13 04:00:00 18.3 3 Noroeste 9 Sudoeste 0 973.4 -0.5 28
2019-08-13 03:00:00 19.8 4 Sur 10 Sudoeste 0 973.8 0.1 25
2019-08-13 02:00:00 21.2 5 Sudoeste 12 Sudoeste 0 974 0.4 23
2019-08-13 01:00:00 22 6 Oeste 17 Norte 0 973.9 0.8 20
2019-08-13 00:00:00 23.2 6 Nordeste 24 Norte 0 973.7 1.1 18
2019-08-12 23:00:00 25.5 16 Norte 23 Noroeste 0 973.6 1.4 16
2019-08-12 22:00:00 26.1 16 Noroeste 22 Noroeste 0 973.1 1 14
2019-08-12 21:00:00 27.5 17 Noroeste 28 Norte 0 972.6 0.4 13
2019-08-12 20:00:00 28.3 21 Noroeste 36 Norte 0 972.2 -0.5 13
2019-08-12 19:00:00 28.6 18 Norte 35 Norte 0 972.1 -1.2 14
2019-08-12 18:00:00 29.4 15 Nordeste 33 Nordeste 0 972.2 -1.8 12
2019-08-12 17:00:00 29.2 15 Norte 33 Nordeste 0 972.7 -1.7 12
2019-08-12 16:00:00 28.3 13 Norte 32 Norte 0 973.3 -1.7 14
2019-08-12 15:00:00 27.7 17 Norte 36 Norte 0 974 -1.1 16
2019-08-12 14:00:00 26.1 15 Norte 37 Noroeste 0 974.4 -0.6 19
2019-08-12 13:00:00 25.1 23 Norte 37 Norte 0 975 -0.1 21
2019-08-12 12:00:00 24.1 24 Nordeste 38 Norte 0 975.1 0.1 24
2019-08-12 11:00:00 21.9 18 Norte 36 Nordeste 0 975 0.4 32
2019-08-12 10:00:00 19.8 3 Norte 17 Norte 0 975.1 1 43
2019-08-12 09:00:00 16.9 13 Norte 24 Norte 0 975 0.6 54
2019-08-12 08:00:00 14 7 Noroeste 26 Norte 0 974.6 0.2 65
2019-08-12 07:00:00 13.5 6 Sudoeste 10 Sudoeste 0 974.1 -0.7 66
2019-08-12 06:00:00 14 6 Sudoeste 12 Oeste 0 974.4 -0.8 64
2019-08-12 05:00:00 15.7 9 Oeste 23 Oeste 0 974.4 -1.2 58
2019-08-12 04:00:00 16.4 5 Nordeste 17 Noroeste 0 974.8 -0.9 56
2019-08-12 03:00:00 17.3 5 Este 22 Sudoeste 0 975.2 -0.2 53
2019-08-12 02:00:00 17.5 9 Sur 15 Sudoeste 0 975.6 0.4 50
2019-08-12 01:00:00 18.8 7 Sur 40 Noroeste 0 975.7 1.1 44
2019-08-12 00:00:00 20.4 24 Noroeste 37 Noroeste 0 975.4 1.4 39
2019-08-11 23:00:00 21.6 24 Noroeste 34 Oeste 0 975.2 1.5 33
2019-08-11 22:00:00 22.5 12 Oeste 28 Oeste 0 974.6 0.6 31
2019-08-11 21:00:00 24.5 23 Oeste 33 Oeste 0 974 0 27
2019-08-11 20:00:00 26.8 18 Oeste 37 Noroeste 0 973.7 -0.6 23
2019-08-11 19:00:00 26.3 22 Oeste 37 Oeste 0 974 -0.6 24
2019-08-11 18:00:00 25.8 22 Oeste 41 Oeste 0 974 -1.1 24
2019-08-11 17:00:00 26.6 27 Oeste 47 Oeste 0 974.3 -1.3 22
2019-08-11 16:00:00 26.4 27 Oeste 43 Noroeste 0 974.6 -1.4 21
2019-08-11 15:00:00 26.2 27 Oeste 43 Oeste 0 975.1 -0.9 22
2019-08-11 14:00:00 25.1 20 Oeste 40 Oeste 0 975.6 -0.2 23
2019-08-11 13:00:00 23.4 25 Oeste 41 Oeste 0 976 0.4 27
2019-08-11 12:00:00 22.5 19 Oeste 32 Oeste 0 976 0.3 33
2019-08-11 11:00:00 20 16 Oeste 30 Oeste 0 975.8 0.7 47
2019-08-11 10:00:00 17.9 18 Oeste 27 Oeste 0 975.6 0.9 55
2019-08-11 09:00:00 16.2 2 Oeste 18 Oeste 0 975.7 1.1 67
2019-08-11 08:00:00 14.3 9 Sudoeste 21 Sudoeste 0 975.1 0.7 73
2019-08-11 07:00:00 14.8 12 Sudoeste 18 Oeste 0 974.7 0.6 68
2019-08-11 06:00:00 15.6 13 Sudoeste 25 Oeste 0 974.6 0 64
2019-08-11 05:00:00 17 17 Oeste 31 Oeste 0 974.4 -0.6 58
2019-08-11 04:00:00 17.9 18 Oeste 24 Oeste 0 974.1 -0.6 54
2019-08-11 03:00:00 17.9 8 Sudoeste 19 Oeste 0 974.6 0.3 56
2019-08-11 02:00:00 19 13 Oeste 28 Oeste 0 975 1.1 56
2019-08-11 01:00:00 20.1 23 Oeste 31 Oeste 0 974.7 1.3 54
2019-08-11 00:00:00 21.7 17 Oeste 35 Oeste 0 974.3 1.4 49
2019-08-10 23:00:00 23.4 21 Oeste 30 Oeste 0 973.9 1.5 39
2019-08-10 22:00:00 24.7 22 Oeste 43 Oeste 0 973.4 0.9 33
2019-08-10 21:00:00 26.9 27 Oeste 42 Oeste 0 972.9 0.1 28
2019-08-10 20:00:00 30.2 23 Oeste 37 Oeste 0 972.4 -1 18
2019-08-10 19:00:00 31.4 19 Oeste 37 Oeste 0 972.5 -1.6 14
2019-08-10 18:00:00 32.4 16 Oeste 28 Oeste 0 972.8 -1.9 12
2019-08-10 17:00:00 31.9 11 Oeste 24 Sudoeste 0 973.4 -2 13
2019-08-10 16:00:00 31.5 13 Sudoeste 26 Oeste 0 974.1 -1.6 14
2019-08-10 15:00:00 30 13 Sur 31 Sudoeste 0 974.7 -1.2 17
2019-08-10 14:00:00 29 7 Sur 27 Sudoeste 0 975.4 -0.5 18
2019-08-10 13:00:00 27 10 Sudoeste 24 Sudoeste 0 975.7 -0.4 28
2019-08-10 12:00:00 25.6 11 Sudoeste 21 Este 0 975.9 -0.2 38
2019-08-10 11:00:00 23.1 5 Sudoeste 13 Sudeste 0 975.9 -0.2 45
2019-08-10 10:00:00 20 8 Este 13 Este 0 976.1 0.5 60
2019-08-10 09:00:00 17.5 5 Este 8 Nordeste 0 976.1 0.8 73
2019-08-10 08:00:00 16.6 4 Noroeste 6 Oeste 0 976.1 0.7 76
2019-08-10 07:00:00 17 2 Oeste 8 Nordeste 0 975.6 0.4 74
2019-08-10 06:00:00 17.8 5 Este 9 Este 0 975.3 0.1 70
2019-08-10 05:00:00 18.2 6 Nordeste 10 Nordeste 0 975.4 0.1 71
2019-08-10 04:00:00 18.9 6 Este 12 Noroeste 0 975.2 -0.3 68
2019-08-10 03:00:00 19.7 9 Oeste 18 Oeste 0 975.2 -0.1 64
2019-08-10 02:00:00 20.9 5 Oeste 14 Noroeste 0 975.3 0.3 59
2019-08-10 01:00:00 21.9 8 Oeste 14 Oeste 0 975.5 1.5 58
2019-08-10 00:00:00 22.8 9 Oeste 23 Oeste 0 975.3 1.9 63
2019-08-09 23:00:00 23.3 15 Oeste 25 Oeste 0 975 2 63
2019-08-09 22:00:00 24.4 19 Oeste 30 Oeste 0 974 0.9 60
2019-08-09 21:00:00 26 23 Oeste 30 Oeste 0 973.4 0.1 55
2019-08-09 20:00:00 28.5 20 Oeste 32 Oeste 0 973 -0.6 47
2019-08-09 19:00:00 29.1 18 Oeste 37 Oeste 0 973.1 -0.4 48
2019-08-09 18:00:00 29.2 24 Oeste 41 Oeste 0 973.3 -0.6 49
2019-08-09 17:00:00 29.1 24 Oeste 48 Oeste 0 973.6 -0.2 51
2019-08-09 16:00:00 29.5 32 Sudoeste 42 Oeste 0 973.5 -0.3 50
2019-08-09 15:00:00 29.1 27 Sudoeste 41 Oeste 0 973.9 0 49
2019-08-09 14:00:00 29.5 22 Sudoeste 33 Sudoeste 0 973.8 -0.2 48
2019-08-09 13:00:00 28.4 21 Sudoeste 36 Sudoeste 0 973.8 -0.2 52
2019-08-09 12:00:00 26.4 13 Sudoeste 26 Sudoeste 0 973.9 0.5 60
2019-08-09 11:00:00 23.6 14 Sudoeste 19 Sudoeste 0 974 1 71
2019-08-09 10:00:00 21.5 13 Sudoeste 18 Sudoeste 0 974 1.3 83
2019-08-09 09:00:00 21 11 Sudoeste 17 Sur 0 973.4 0.8 83
2019-08-09 08:00:00 21.1 13 Sudoeste 23 Sudoeste 0 973 0.3 80
2019-08-09 07:00:00 21 13 Sudoeste 18 Sudoeste 0 972.7 0 80
2019-08-09 06:00:00 20.7 11 Sudoeste 17 Sudoeste 0 972.6 -0.1 81
2019-08-09 05:00:00 21.2 10 Sudoeste 24 Oeste 0 972.7 0 78
2019-08-09 04:00:00 20.8 15 Oeste 22 Oeste 0 972.7 0.2 81
2019-08-09 03:00:00 21 10 Sudoeste 27 Sudoeste 0 972.7 0.4 77
2019-08-09 02:00:00 21.9 20 Oeste 27 Sudoeste 0 972.7 1 73
2019-08-09 01:00:00 22.8 16 Sudoeste 24 Sudoeste 0 972.5 2.2 64
2019-08-09 00:00:00 24.4 19 Sudoeste 36 Oeste 0 972.3 2.6 54
2019-08-08 23:00:00 25.8 30 Oeste 43 Oeste 0 971.7 2.2 55
2019-08-08 22:00:00 28.1 31 Oeste 42 Oeste 0 970.3 0.7 48
2019-08-08 21:00:00 30.4 27 Oeste 39 Oeste 0 969.7 0 30
2019-08-08 20:00:00 32 26 Oeste 40 Oeste 0 969.5 -0.4 29
2019-08-08 19:00:00 33.1 28 Oeste 41 Sudoeste 0 969.6 -0.8 26
2019-08-08 18:00:00 34.4 23 Sudoeste 42 Oeste 0 969.7 -1 22
2019-08-08 17:00:00 34.2 27 Oeste 41 Sudoeste 0 969.9 -1.3 22
2019-08-08 16:00:00 34.3 22 Sudoeste 40 Sudoeste 0 970.4 -1.3 22
2019-08-08 15:00:00 33.3 21 Sudoeste 33 Oeste 0 970.7 -1.3 21
2019-08-08 14:00:00 32.4 18 Sudoeste 28 Sudoeste 0 971.2 -0.8 23
2019-08-08 13:00:00 30.1 9 Sudoeste 15 Sur 0 971.7 -0.3 28
2019-08-08 12:00:00 27.9 5 Sur 12 Norte 0 972 0.1 35
2019-08-08 11:00:00 25.6 5 Este 10 Nordeste 0 972 0.4 46
2019-08-08 10:00:00 22.1 5 Nordeste 11 Este 0 972 0.5 58
2019-08-08 09:00:00 19.1 5 Este 8 Este 0 971.9 0.4 66
2019-08-08 08:00:00 17.3 5 Este 6 Este 0 971.6 -0.1 76
2019-08-08 07:00:00 18.6 0 Calma 3 Nordeste 0 971.5 -0.5 74
2019-08-08 06:00:00 18.6 2 Sur 7 Sudoeste 0 971.5 -0.5 71
2019-08-08 05:00:00 19.6 3 Oeste 11 Oeste 0 971.7 -0.4 69
2019-08-08 04:00:00 20.1 6 Oeste 10 Sudoeste 0 972 0 64
2019-08-08 03:00:00 21 7 Oeste 12 Sudoeste 0 972 0 59
2019-08-08 02:00:00 21.5 6 Sudoeste 10 Sudoeste 0 972.1 0.4 53
2019-08-08 01:00:00 22.9 6 Oeste 10 Oeste 0 972 0.8 48
2019-08-08 00:00:00 23.7 3 Oeste 18 Oeste 0 972 1.2 46
2019-08-07 23:00:00 24.3 14 Oeste 18 Oeste 0 971.7 1.1 44
2019-08-07 22:00:00 25.3 13 Oeste 21 Oeste 0 971.2 0.1 40
2019-08-07 21:00:00 27.5 13 Oeste 17 Sudoeste 0 970.8 -0.1 33
2019-08-07 20:00:00 28.4 8 Sudeste 12 Sudeste 0 970.6 -0.1 35
2019-08-07 19:00:00 28.1 4 Sudoeste 15 Sudoeste 0 971.1 -0.5 38
2019-08-07 18:00:00 26.6 6 Noroeste 12 Norte 0 970.9 -0.4 41
2019-08-07 17:00:00 26.6 5 Norte 22 Oeste 0 970.7 -0.8 43
2019-08-07 16:00:00 26.3 16 Oeste 22 Oeste 0 971.6 -0.4 48
2019-08-07 15:00:00 26.7 12 Sudoeste 18 Sudoeste 0 971.3 -0.4 44
2019-08-07 14:00:00 28.6 7 Nordeste 19 Sur 0 971.5 0 31
2019-08-07 13:00:00 26.6 11 Sur 40 Este 0 972 1 42
2019-08-07 12:00:00 25.6 10 Sudoeste 21 Sur 0 971.7 1.2 49
2019-08-07 11:00:00 23.7 6 Sur 15 Sudoeste 0 971.5 1.2 60
2019-08-07 10:00:00 21.1 10 Sudoeste 15 Sudoeste 0 971 1.1 70
2019-08-07 09:00:00 19.1 6 Sudoeste 14 Sudoeste 0 970.5 0.8 77
2019-08-07 08:00:00 17.9 10 Oeste 15 Oeste 0 970.3 0.6 81
2019-08-07 07:00:00 18.1 9 Oeste 17 Oeste 0 969.9 0.2 79
2019-08-07 06:00:00 18.9 14 Oeste 21 Oeste 0 969.7 -0.2 77
2019-08-07 05:00:00 19.3 12 Sudoeste 15 Oeste 0 969.7 -0.5 74
2019-08-07 04:00:00 20.2 11 Sudoeste 15 Oeste 0 969.7 -0.5 69
2019-08-07 03:00:00 21.1 8 Oeste 15 Sudoeste 0 969.9 -0.2 64
2019-08-07 02:00:00 22.6 9 Sudoeste 20 Oeste 0 970.2 0.5 58
2019-08-07 01:00:00 23.8 13 Oeste 21 Oeste 0 970.2 1.6 54
2019-08-07 00:00:00 24.9 17 Oeste 29 Oeste 0 970.1 2 49
2019-08-06 23:00:00 26.3 22 Oeste 33 Oeste 0 969.7 1.8 44
2019-08-06 22:00:00 28.4 23 Oeste 32 Oeste 0 968.6 0.4 36
2019-08-06 21:00:00 30.7 25 Oeste 35 Sudoeste 0 968.1 -0.5 28
2019-08-06 20:00:00 32.4 22 Oeste 41 Sudoeste 0 967.9 -0.9 25
2019-08-06 19:00:00 33.1 26 Oeste 41 Oeste 0 968.2 -1.1 23
2019-08-06 18:00:00 33.8 26 Oeste 39 Oeste 0 968.6 -1.3 19
2019-08-06 17:00:00 34.7 23 Oeste 37 Sudoeste 0 968.8 -1.7 15
2019-08-06 16:00:00 33.9 23 Sudoeste 37 Sudoeste 0 969.3 -1.4 17
2019-08-06 15:00:00 32.9 22 Sudoeste 37 Oeste 0 969.9 -1 17
2019-08-06 14:00:00 32.3 20 Sudoeste 32 Sudoeste 0 970.5 -0.3 20
2019-08-06 13:00:00 31.3 22 Sudoeste 32 Sudoeste 0 970.7 -0.6 23
2019-08-06 12:00:00 29.3 8 Sudoeste 15 Sudoeste 0 970.9 -0.4 30
2019-08-06 11:00:00 25.6 5 Este 12 Este 0 970.8 -0.7 41
2019-08-06 10:00:00 21.5 8 Este 13 Este 0 971.3 0.4 57
2019-08-06 09:00:00 18.7 4 Nordeste 10 Sudoeste 0 971.3 0.3 63
2019-08-06 08:00:00 16.2 7 Sudoeste 16 Sudoeste 0 971.5 0.6 69
2019-08-06 07:00:00 17.5 8 Oeste 15 Oeste 0 970.9 -0.3 63
2019-08-06 06:00:00 18.1 10 Oeste 13 Oeste 0 971 -0.3 60
2019-08-06 05:00:00 19.1 8 Oeste 10 Oeste 0 970.9 -0.5 56
2019-08-06 04:00:00 20.1 8 Oeste 14 Oeste 0 971.2 -0.2 51
2019-08-06 03:00:00 21.5 9 Oeste 14 Oeste 0 971.3 0.2 46
2019-08-06 02:00:00 22.7 12 Oeste 19 Sudoeste 0 971.4 1 42
2019-08-06 01:00:00 24.2 14 Sudoeste 27 Oeste 0 971.4 1.7 36
2019-08-06 00:00:00 25.7 14 Sudoeste 24 Noroeste 0 971.1 1.9 29
2019-08-05 23:00:00 27.7 18 Oeste 23 Oeste 0 970.4 1.3 23
2019-08-05 22:00:00 30.1 19 Oeste 28 Oeste 0 969.7 0.6 19
2019-08-05 21:00:00 32.3 18 Sudoeste 33 Oeste 0 969.2 0 14
2019-08-05 20:00:00 33.9 24 Oeste 40 Sudoeste 0 969.1 -0.5 13
2019-08-05 19:00:00 34.6 24 Oeste 40 Sudoeste 0 969.1 -0.8 10
2019-08-05 18:00:00 34.7 26 Sudoeste 44 Sudoeste 0 969.2 -1.1 10
2019-08-05 17:00:00 34.9 22 Oeste 36 Oeste 0 969.6 -1 11
2019-08-05 16:00:00 34.5 17 Sudoeste 34 Sudoeste 0 969.9 -1.3 12
2019-08-05 15:00:00 34 20 Oeste 35 Sudoeste 0 970.3 -1.4 11
2019-08-05 14:00:00 33 19 Sudoeste 31 Sudoeste 0 970.6 -1.3 13
2019-08-05 13:00:00 31.4 12 Sudoeste 18 Sudoeste 0 971.2 -0.8 18
2019-08-05 12:00:00 27.2 8 Sudoeste 12 Sudoeste 0 971.7 -0.3 29
2019-08-05 11:00:00 24.2 2 Oeste 9 Este 0 971.9 0 46
2019-08-05 10:00:00 20.2 6 Este 12 Este 0 972 0.2 58
2019-08-05 09:00:00 17.4 2 Oeste 8 Este 0 972 0.2 66
2019-08-05 08:00:00 15.9 3 Norte 5 Sudoeste 0 971.9 0 72
2019-08-05 07:00:00 16.4 3 Sudoeste 11 Sudoeste 0 971.8 -0.3 71
2019-08-05 06:00:00 17.5 4 Sudoeste 6 Sudoeste 0 971.8 -0.4 66
2019-08-05 05:00:00 18.2 5 Sudoeste 12 Sudoeste 0 971.9 -0.6 63
2019-08-05 04:00:00 19.3 5 Sudoeste 16 Sudoeste 0 972.1 -0.4 59
2019-08-05 03:00:00 20.2 10 Oeste 15 Oeste 0 972.2 0 55
2019-08-05 02:00:00 21.8 12 Sudoeste 17 Oeste 0 972.5 0.9 50
2019-08-05 01:00:00 23.5 14 Oeste 18 Oeste 0 972.5 1.7 45
2019-08-05 00:00:00 24.9 12 Oeste 24 Oeste 0 972.2 1.9 42
2019-08-04 23:00:00 26.6 18 Oeste 39 Oeste 0 971.6 1.5 36
2019-08-04 22:00:00 28.7 24 Oeste 36 Oeste 0 970.8 0.8 31
2019-08-04 21:00:00 31.8 23 Oeste 36 Oeste 0 970.3 0.3 24
2019-08-04 20:00:00 34.1 22 Oeste 32 Sudoeste 0 970.1 -0.3 19
2019-08-04 19:00:00 34.6 19 Oeste 35 Oeste 0 970 -0.9 17
2019-08-04 18:00:00 35.1 18 Sudoeste 31 Oeste 0 970 -1.3 17
2019-08-04 17:00:00 34.7 22 Sudoeste 39 Sudoeste 0 970.4 -1.3 16
2019-08-04 16:00:00 34.2 15 Sudoeste 32 Sudoeste 0 970.9 -1.2 19
2019-08-04 15:00:00 32.5 15 Oeste 30 Sudoeste 0 971.3 -1.1 24
2019-08-04 14:00:00 31.3 15 Sudoeste 31 Sudoeste 0 971.7 -0.8 29
2019-08-04 13:00:00 28.7 15 Sur 26 Sur 0 972.1 -0.4 38
2019-08-04 12:00:00 25.6 11 Sudoeste 17 Sur 0 972.4 0.1 50
2019-08-04 11:00:00 22.6 9 Sudoeste 15 Sudoeste 0 972.5 0.5 62
2019-08-04 10:00:00 20 7 Sudoeste 14 Sudoeste 0 972.5 0.8 72
2019-08-04 09:00:00 18.3 7 Sudoeste 10 Sudoeste 0 972.3 0.8 74
2019-08-04 08:00:00 16.6 7 Oeste 11 Sudoeste 0 972 0.6 78
2019-08-04 07:00:00 17.3 7 Oeste 12 Oeste 0 971.7 0.3 74
2019-08-04 06:00:00 18 6 Oeste 11 Oeste 0 971.5 0.1 69
2019-08-04 05:00:00 18.9 8 Sudoeste 16 Sudoeste 0 971.4 0 62
2019-08-04 04:00:00 19.6 13 Sudoeste 15 Sudoeste 0 971.4 0.2 62
2019-08-04 03:00:00 21 10 Oeste 16 Oeste 0 971.4 0.6 59
2019-08-04 02:00:00 22.2 11 Oeste 19 Sudoeste 0 971.4 1.1 55
2019-08-04 01:00:00 23.7 13 Sudoeste 22 Oeste 0 971.2 1.5 48
2019-08-04 00:00:00 25.2 12 Oeste 25 Oeste 0 970.8 1.5 41
2019-08-03 23:00:00 27.6 12 Sudoeste 19 Sudoeste 0 970.3 1.2 31
2019-08-03 22:00:00 29 10 Sudoeste 25 Oeste 0 969.7 0.4 23
2019-08-03 21:00:00 31.9 17 Oeste 36 Oeste 0 969.3 -0.2 17
2019-08-03 20:00:00 33 23 Oeste 35 Sudoeste 0 969.1 -0.9 19
2019-08-03 19:00:00 34 24 Sudoeste 40 Oeste 0 969.3 -0.9 13
2019-08-03 18:00:00 34.2 22 Oeste 39 Sudoeste 0 969.5 -1 13
2019-08-03 17:00:00 33.9 24 Sudoeste 41 Sudoeste 0 970 -0.9 14
2019-08-03 16:00:00 33.6 24 Sudoeste 40 Sudoeste 0 970.2 -1 15
2019-08-03 15:00:00 33.2 23 Oeste 35 Sudoeste 0 970.5 -0.7 16
2019-08-03 14:00:00 32 21 Sudoeste 35 Sudoeste 0 970.9 -0.4 20
2019-08-03 13:00:00 30 17 Sudoeste 27 Sudoeste 0 971.2 -0.3 29
2019-08-03 12:00:00 26.9 10 Sudoeste 17 Sudoeste 0 971.2 -0.1 38
2019-08-03 11:00:00 23.1 8 Sudoeste 13 Sudoeste 0 971.3 0.4 51
2019-08-03 10:00:00 20.1 6 Sudoeste 9 Sudoeste 0 971.5 0.8 60
2019-08-03 09:00:00 18.2 3 Sudoeste 5 Sudoeste 0 971.3 0.8 65
2019-08-03 08:00:00 16.6 3 Este 6 Este 0 970.9 0.3 72
2019-08-03 07:00:00 17.3 0 Calma 4 Nordeste 0 970.7 0 70
2019-08-03 06:00:00 18.2 2 Sudoeste 13 Oeste 0 970.5 -0.4 65
2019-08-03 05:00:00 19.3 10 Oeste 12 Sudoeste 0 970.6 -0.2 63
2019-08-03 04:00:00 20 8 Oeste 11 Oeste 0 970.7 -0.1 59
2019-08-03 03:00:00 21.1 8 Oeste 22 Sudoeste 0 970.9 0.2 54
2019-08-03 02:00:00 22.3 13 Sudoeste 18 Sudoeste 0 970.8 0.5 48
2019-08-03 01:00:00 23.8 9 Sudoeste 15 Sudoeste 0 970.8 0.8 35
2019-08-03 00:00:00 25.4 8 Sudoeste 18 Sudoeste 0 970.7 1 30
2019-08-02 23:00:00 27.7 14 Oeste 22 Oeste 0 970.3 0.7 24
2019-08-02 22:00:00 29.4 15 Oeste 22 Oeste 0 970 0.3 20
2019-08-02 21:00:00 32.3 17 Sudoeste 25 Oeste 0 969.7 -0.3 16
2019-08-02 20:00:00 34.2 17 Sudoeste 27 Sudoeste 0 969.6 -0.7 13
2019-08-02 19:00:00 34.4 11 Oeste 30 Oeste 0 969.7 -1.2 13
2019-08-02 18:00:00 34.7 13 Oeste 30 Sudoeste 0 970 -1.1 12
2019-08-02 17:00:00 34.2 16 Oeste 32 Sudoeste 0 970.3 -1.2 13
2019-08-02 16:00:00 33.5 17 Sudoeste 33 Sudoeste 0 970.9 -0.9 14
2019-08-02 15:00:00 32.4 19 Sudoeste 30 Sudoeste 0 971.1 -1 14
2019-08-02 14:00:00 31.2 11 Oeste 24 Oeste 0 971.5 -0.6 17
2019-08-02 13:00:00 29.6 14 Sudoeste 25 Sur 0 971.8 -0.5 23
2019-08-02 12:00:00 25.7 12 Sudoeste 19 Sudoeste 0 972.1 0.2 32
2019-08-02 11:00:00 21.9 5 Sudoeste 8 Sudoeste 0 972.1 0.5 42
2019-08-02 10:00:00 19.1 4 Sudoeste 8 Sudoeste 0 972.3 0.7 52
2019-08-02 09:00:00 16.9 2 Sudoeste 5 Sudoeste 0 971.9 0.5 57
2019-08-02 08:00:00 14.5 3 Sudeste 6 Sudoeste 0 971.6 0.1 64
2019-08-02 07:00:00 14.9 7 Sudoeste 13 Sudoeste 0 971.6 0 64
2019-08-02 06:00:00 15.8 9 Sudoeste 12 Sudoeste 0 971.4 -0.4 59
2019-08-02 05:00:00 16.6 6 Sudoeste 15 Oeste 0 971.5 -0.4 51
2019-08-02 04:00:00 17.7 10 Oeste 19 Oeste 0 971.6 -0.3 49
2019-08-02 03:00:00 19.6 13 Oeste 17 Sudoeste 0 971.8 0.3 46
2019-08-02 02:00:00 20.8 16 Sudoeste 18 Sudoeste 0 971.9 1.1 42
2019-08-02 01:00:00 22.9 11 Sudoeste 20 Sudoeste 0 971.9 2.2 36
2019-08-02 00:00:00 24.7 9 Oeste 37 Oeste 0 971.5 2.4 31
2019-08-01 23:00:00 26.6 22 Oeste 36 Oeste 0 970.8 2 26
2019-08-01 22:00:00 28.8 22 Oeste 32 Oeste 0 969.7 1 23
2019-08-01 21:00:00 31.7 25 Oeste 33 Oeste 0 969.1 0.1 17
2019-08-01 20:00:00 33.7 19 Oeste 32 Sudoeste 0 968.8 -0.4 15
2019-08-01 19:00:00 34 13 Oeste 31 Oeste 0 968.7 -0.8 16
2019-08-01 18:00:00 34 19 Oeste 34 Oeste 0 969 -0.9 15
2019-08-01 17:00:00 33.7 14 Oeste 29 Oeste 0 969.2 -1.2 14
2019-08-01 16:00:00 33.2 17 Oeste 34 Sudoeste 0 969.5 -1.1 15
2019-08-01 15:00:00 32.2 20 Sudoeste 31 Oeste 0 969.9 -0.6 18
2019-08-01 14:00:00 30.8 22 Sudoeste 35 Sudoeste 0 970.4 0.1 19
2019-08-01 13:00:00 29.1 20 Sudoeste 28 Sudoeste 0 970.6 0.5 24
2019-08-01 12:00:00 27.4 18 Sudoeste 26 Sudoeste 0 970.5 0.7 28
2019-08-01 11:00:00 24.3 10 Sudoeste 18 Sudoeste 0 970.3 0.8 38
2019-08-01 10:00:00 21 6 Sudoeste 11 Sudoeste 0 970.1 0.8 49
2019-08-01 09:00:00 18.9 5 Sudoeste 9 Sudoeste 0 969.8 0.7 55
2019-08-01 08:00:00 17.1 4 Sudoeste 13 Oeste 0 969.5 0.4 62
2019-08-01 07:00:00 17.5 11 Oeste 16 Oeste 0 969.3 0.4 59
2019-08-01 06:00:00 18.1 10 Sudoeste 14 Oeste 0 969.1 0.1 54
2019-08-01 05:00:00 19.6 8 Sudoeste 14 Sudoeste 0 969.1 0.1 48
2019-08-01 04:00:00 20.7 8 Oeste 12 Sudoeste 0 968.9 -0.2 45
2019-08-01 03:00:00 21.9 10 Oeste 16 Oeste 0 969 0 41
2019-08-01 02:00:00 22.6 9 Oeste 13 Sudoeste 0 969 0.4 37
2019-08-01 01:00:00 23.6 5 Sudoeste 8 Sudoeste 0 969.1 1.5 35
2019-08-01 00:00:00 24.7 2 Sudeste 14 Oeste 0 969 2.3 33
2019-07-31 23:00:00 25.8 5 Sudoeste 36 Oeste 0 968.6 2 30
2019-07-31 22:00:00 27.1 27 Oeste 46 Oeste 0 967.6 1 28
2019-07-31 21:00:00 31.8 17 Oeste 34 Oeste 0 966.7 0 12
2019-07-31 20:00:00 34.3 21 Sudoeste 40 Oeste 0 966.6 -0.7 12
2019-07-31 19:00:00 35 24 Sudoeste 39 Oeste 0 966.6 -1.3 12
2019-07-31 18:00:00 35.6 14 Oeste 33 Sudoeste 0 966.7 -1.5 11
2019-07-31 17:00:00 35.9 13 Oeste 51 Sudoeste 0 967.3 -1.5 11
2019-07-31 16:00:00 35.3 14 Sudoeste 33 Sudoeste 0 967.9 -1.4 11
2019-07-31 15:00:00 34.6 18 Sudoeste 38 Sudoeste 0 968.2 -1.3 11
2019-07-31 14:00:00 33.9 11 Oeste 28 Sudoeste 0 968.8 -0.8 11
2019-07-31 13:00:00 32.5 9 Sudoeste 18 Sur 0 969.3 -0.3 13
2019-07-31 12:00:00 30.1 4 Sudeste 10 Este 0 969.5 0 19
2019-07-31 11:00:00 25.6 4 Este 13 Este 0 969.6 0.1 24
2019-07-31 10:00:00 20.5 3 Este 8 Nordeste 0 969.6 0.1 38
2019-07-31 09:00:00 15.9 4 Este 9 Este 0 969.5 -0.1 51
2019-07-31 08:00:00 14.7 7 Este 15 Este 0 969.5 0 52
2019-07-31 07:00:00 13.6 7 Este 10 Este 0 969.5 -0.2 60
2019-07-31 06:00:00 15.5 4 Este 6 Norte 0 969.6 -0.5 55
2019-07-31 05:00:00 16.8 0 Calma 5 Este 0 969.5 -0.9 53
2019-07-31 04:00:00 17.3 2 Sudeste 10 Sudoeste 0 969.7 -0.8 48
2019-07-31 03:00:00 18.5 6 Sudoeste 9 Sudoeste 0 970.1 -0.3 44
2019-07-31 02:00:00 19.9 6 Sudoeste 9 Sudoeste 0 970.4 0.1 34
2019-07-31 01:00:00 21.3 4 Norte 9 Noroeste 0 970.5 0.7 22
2019-07-31 00:00:00 22.6 6 Oeste 17 Oeste 0 970.4 0.9 21
2019-07-30 23:00:00 26.4 13 Norte 18 Noroeste 0 970.3 0.9 15
2019-07-30 22:00:00 27.2 13 Noroeste 21 Norte 0 969.8 0.5 14
2019-07-30 21:00:00 29.5 12 Noroeste 27 Noroeste 0 969.5 -0.4 12
2019-07-30 20:00:00 30.6 14 Norte 27 Norte 0 969.4 -1 10
2019-07-30 19:00:00 31.4 9 Noroeste 30 Norte 0 969.3 -1.6 10
2019-07-30 18:00:00 31.5 11 Norte 32 Norte 0 969.9 -1.6 11
2019-07-30 17:00:00 30.8 10 Noroeste 30 Noroeste 0 970.4 -1.6 11
2019-07-30 16:00:00 29.7 10 Nordeste 28 Noroeste 0 970.9 -1.7 12
2019-07-30 15:00:00 29.1 16 Noroeste 31 Oeste 0 971.5 -1.3 13
2019-07-30 14:00:00 27.4 14 Norte 32 Noroeste 0 972 -1.1 13
2019-07-30 13:00:00 26.1 17 Norte 28 Norte 0 972.6 -0.8 19
2019-07-30 12:00:00 24.7 14 Norte 25 Norte 0 972.8 -0.4 23
2019-07-30 11:00:00 21.5 7 Este 17 Este 0 973.1 0.3 38
2019-07-30 10:00:00 18.9 6 Este 11 Este 0 973.4 0.9 48
2019-07-30 09:00:00 15.1 0 Calma 7 Sudoeste 0 973.2 0.8 64
2019-07-30 08:00:00 12.5 5 Sudoeste 8 Sur 0 972.8 0.4 73
2019-07-30 07:00:00 12.8 6 Sudoeste 10 Sudoeste 0 972.5 0 71
2019-07-30 06:00:00 14.3 5 Sudoeste 11 Oeste 0 972.4 -0.1 65
2019-07-30 05:00:00 14.9 5 Sudoeste 12 Sudoeste 0 972.4 -0.1 62
2019-07-30 04:00:00 15.6 9 Sudoeste 12 Sudoeste 0 972.5 0.2 59
2019-07-30 03:00:00 16.5 10 Oeste 17 Oeste 0 972.5 0.6 54
2019-07-30 02:00:00 17.7 9 Oeste 17 Sudoeste 0 972.5 1 50
2019-07-30 01:00:00 19.2 11 Sudoeste 18 Sudoeste 0 972.3 1.5 45
2019-07-30 00:00:00 20.8 10 Sudoeste 35 Oeste 0 971.9 1.7 40
2019-07-29 23:00:00 22.7 23 Oeste 31 Oeste 0 971.5 1.7 33
2019-07-29 22:00:00 24.8 19 Oeste 32 Oeste 0 970.8 1.3 26
2019-07-29 21:00:00 27.4 19 Noroeste 37 Oeste 0 970.2 0.7 23
2019-07-29 20:00:00 29.1 24 Oeste 42 Oeste 0 969.8 0 22
2019-07-29 19:00:00 30.2 23 Oeste 40 Oeste 0 969.5 -0.5 22
2019-07-29 18:00:00 30 18 Noroeste 36 Oeste 0 969.5 -0.6 23
2019-07-29 17:00:00 30.3 25 Oeste 41 Oeste 0 969.8 -0.5 20
2019-07-29 16:00:00 29.4 23 Oeste 35 Oeste 0 970 -0.9 30
2019-07-29 15:00:00 28.8 18 Oeste 35 Oeste 0 970.1 -0.9 37
2019-07-29 14:00:00 27.6 18 Sudoeste 32 Oeste 0 970.3 -0.5 41
2019-07-29 13:00:00 26.4 16 Oeste 40 Noroeste 0 970.9 0.1 46
2019-07-29 12:00:00 23.7 19 Oeste 29 Oeste 0 971 0.4 50
2019-07-29 11:00:00 21.7 19 Oeste 30 Oeste 0 970.8 0.6 57
2019-07-29 10:00:00 18.9 10 Sudoeste 17 Sudoeste 0 970.8 1.2 60
2019-07-29 09:00:00 16 8 Sur 12 Sur 0 970.6 1.3 64
2019-07-29 08:00:00 14.7 9 Oeste 17 Sudoeste 0 970.2 1.1 58
2019-07-29 07:00:00 14.5 13 Sudoeste 19 Sudoeste 0 969.6 0.7 60
2019-07-29 06:00:00 15.9 13 Oeste 16 Oeste 0 969.3 0.4 57
2019-07-29 05:00:00 17.2 9 Oeste 19 Oeste 0 969.1 0.2 54
2019-07-29 04:00:00 18.7 14 Sudoeste 20 Sudoeste 0 968.9 0.3 57
2019-07-29 03:00:00 20.3 10 Sudoeste 21 Oeste 0 968.9 0.9 55
2019-07-29 02:00:00 21.7 14 Sudoeste 27 Oeste 0 968.9 1.4 51
2019-07-29 01:00:00 23.2 20 Sudoeste 35 Oeste 0 968.6 1.6 47
2019-07-29 00:00:00 24.5 27 Oeste 37 Oeste 0 968 1.5 44
2019-07-28 23:00:00 25.8 14 Oeste 17 Oeste 0 967.5 1.4 32
2019-07-28 22:00:00 28 9 Noroeste 23 Noroeste 0 967 1.1 27
2019-07-28 21:00:00 30.4 13 Oeste 31 Oeste 0 966.5 0.3 25
2019-07-28 20:00:00 31.4 16 Oeste 31 Oeste 0 966.1 -0.5 26
2019-07-28 19:00:00 31.8 22 Sudoeste 29 Sudoeste 0 965.9 -1.2 26
2019-07-28 18:00:00 31.9 15 Sudoeste 27 Oeste 0 966.2 -1.3 26
2019-07-28 17:00:00 31 9 Sudoeste 25 Sudoeste 0 966.6 -1.5 28
2019-07-28 16:00:00 31.4 6 Oeste 19 Sudoeste 0 967.1 -1.3 25
2019-07-28 15:00:00 29.3 9 Oeste 24 Este 0 967.5 -1.1 27
2019-07-28 14:00:00 27.3 6 Este 24 Sudeste 0 968.1 -0.8 32
2019-07-28 13:00:00 27 5 Sur 18 Sudoeste 0 968.4 -0.6 35
2019-07-28 12:00:00 24.5 7 Sur 14 Sudoeste 0 968.6 -0.3 45
2019-07-28 11:00:00 21.7 4 Oeste 9 Sudoeste 0 968.9 0.3 60
2019-07-28 10:00:00 18.2 4 Sudoeste 8 Sudoeste 0 969 0.6 74
2019-07-28 09:00:00 15.9 3 Este 8 Este 0 968.9 0.7 82
2019-07-28 08:00:00 14.3 3 Nordeste 4 Nordeste 0 968.6 0.5 88
2019-07-28 07:00:00 15 3 Sudoeste 7 Oeste 0 968.4 0 87
2019-07-28 06:00:00 15.4 5 Sudoeste 9 Sudoeste 0 968.2 -0.5 86
2019-07-28 05:00:00 15.9 7 Oeste 10 Oeste 0 968.1 -0.8 84
2019-07-28 04:00:00 16.3 7 Sudoeste 10 Sudoeste 0 968.4 -0.5 82
2019-07-28 03:00:00 16.9 6 Sudoeste 14 Sudoeste 0 968.7 -0.2 79
2019-07-28 02:00:00 17.7 9 Sudoeste 17 Sudoeste 0 968.9 0.4 77
2019-07-28 01:00:00 18.8 10 Sudoeste 21 Sudoeste 0 968.9 1 72
2019-07-28 00:00:00 20 15 Sudoeste 32 Oeste 0 968.9 1.5 67
2019-07-27 23:00:00 21.1 22 Sudoeste 32 Sudoeste 0 968.5 1.3 65
2019-07-26 12:00:00 22.7 17 Oeste 29 Oeste 0 972.4 0.1 50
2019-07-26 11:00:00 19.9 14 Sudoeste 29 Sudoeste 0 972.4 0.5 60
2019-07-26 10:00:00 18 18 Sudoeste 26 Oeste 0 972.8 1.2 68
2019-07-26 09:00:00 16.3 10 Oeste 22 Oeste 0 972.3 0.9 75
2019-07-26 08:00:00 14.4 17 Oeste 27 Oeste 0 971.9 0.4 83
2019-07-26 07:00:00 15 20 Oeste 29 Oeste 0 971.6 0 80
2019-07-26 06:00:00 16.7 12 Oeste 22 Noroeste 0 971.4 -0.3 75
2019-07-26 05:00:00 17.8 12 Oeste 16 Oeste 0 971.5 -0.4 72
2019-07-26 04:00:00 18.7 13 Oeste 22 Oeste 0 971.6 -0.2 69
2019-07-26 03:00:00 19.8 15 Oeste 22 Oeste 0 971.7 0 74
2019-07-26 02:00:00 20.9 18 Sudoeste 31 Oeste 0 971.9 1 72
2019-07-26 01:00:00 22 19 Sudoeste 31 Sudoeste 0 971.8 1.9 69
2019-07-26 00:00:00 23.1 21 Sudoeste 43 Oeste 0 971.7 2.1 67
2019-07-25 23:00:00 24.5 31 Oeste 50 Oeste 0 970.9 1.7 63
2019-07-25 22:00:00 27.6 34 Oeste 47 Oeste 0 969.9 0.6 47
2019-07-25 21:00:00 30.2 19 Oeste 35 Sudoeste 0 969.6 0 23
2019-07-25 20:00:00 32.6 28 Sudoeste 42 Sudoeste 0 969.2 -0.8 21
2019-07-25 19:00:00 33.5 28 Sudoeste 43 Sudoeste 0 969.3 -0.7 20
2019-07-25 18:00:00 33.3 26 Oeste 46 Oeste 0 969.6 -0.9 24
2019-07-25 17:00:00 33.3 27 Oeste 40 Sudoeste 0 970 -0.9 23
2019-07-25 16:00:00 33.5 25 Sudoeste 39 Sudoeste 0 970 -1.2 24
2019-07-25 15:00:00 32.7 19 Oeste 33 Sudoeste 0 970.5 -0.9 22
2019-07-25 14:00:00 32.3 17 Sudoeste 26 Sudoeste 0 970.9 -0.4 25
2019-07-25 13:00:00 30.1 14 Sudoeste 28 Sudoeste 0 971.2 -0.3 33
2019-07-25 12:00:00 28.7 13 Sudoeste 26 Oeste 0 971.4 0.1 39
2019-07-25 11:00:00 26.3 13 Sudoeste 19 Sudoeste 0 971.3 0.3 48
2019-07-25 10:00:00 22.6 8 Sudoeste 10 Sudoeste 0 971.5 1 57
2019-07-25 09:00:00 20.5 5 Sudoeste 7 Sudoeste 0 971.3 1 54
2019-07-25 08:00:00 18.7 3 Sudeste 7 Este 0 971 0.5 59
2019-07-25 07:00:00 19 5 Nordeste 9 Noroeste 0 970.5 -0.2 58
2019-07-25 06:00:00 20.3 8 Oeste 12 Oeste 0 970.3 -0.6 59
2019-07-25 05:00:00 20.9 10 Oeste 12 Oeste 0 970.5 -0.4 50
2019-07-25 04:00:00 21.9 11 Sudoeste 14 Sudoeste 0 970.7 -0.2 44
2019-07-25 03:00:00 23.6 9 Oeste 12 Oeste 0 970.9 0.4 38
2019-07-25 02:00:00 24.9 8 Oeste 24 Sudoeste 0 970.9 1.2 34
2019-07-25 01:00:00 26.3 14 Sudoeste 22 Sudoeste 0 970.9 2.1 30
2019-07-25 00:00:00 28.4 12 Oeste 33 Sudoeste 0 970.5 2.2 28
2019-07-24 23:00:00 30.8 25 Sudoeste 37 Sudoeste 0 969.7 1.7 22
2019-07-24 22:00:00 31.6 16 Oeste 34 Oeste 0 968.8 0.6 22
2019-07-24 21:00:00 34.1 28 Oeste 41 Sudoeste 0 968.3 -0.2 19
2019-07-24 20:00:00 36 24 Sudoeste 39 Sudoeste 0 968 -1.1 18
2019-07-24 19:00:00 36.5 24 Oeste 40 Sudoeste 0 968.2 -1.1 19
2019-07-24 18:00:00 37.3 22 Sudoeste 37 Sudoeste 0 968.5 -1.3 17
2019-07-24 17:00:00 37 24 Sudoeste 38 Sudoeste 0 969.1 -1.2 17
2019-07-24 16:00:00 37 14 Sudoeste 38 Sudoeste 0 969.3 -1.5 17
2019-07-24 15:00:00 36.3 18 Sudoeste 29 Sudoeste 0 969.8 -1.3 19
2019-07-24 14:00:00 35.7 11 Sudoeste 31 Sudoeste 0 970.3 -0.9 19
2019-07-24 13:00:00 34.5 10 Sudoeste 22 Sur 0 970.8 -0.3 21
2019-07-24 12:00:00 33.1 6 Sudoeste 15 Sudoeste 0 971.1 -0.1 22
2019-07-24 11:00:00 29.5 6 Sudoeste 10 Sudoeste 0 971.2 0.1 33
2019-07-24 10:00:00 25.7 3 Sudoeste 7 Oeste 0 971.1 0 42
2019-07-24 09:00:00 22.7 4 Sudoeste 7 Sudoeste 0 971.2 0.3 51
2019-07-24 08:00:00 20.8 3 Sudeste 8 Nordeste 0 971.1 0.3 59
2019-07-24 07:00:00 21.1 4 Sudoeste 20 Oeste 0 971.1 -0.1 60
2019-07-24 06:00:00 21.3 12 Sudoeste 28 Oeste 0 970.9 -0.8 59
2019-07-24 05:00:00 22.8 6 Sudeste 8 Este 0 970.8 -1.2 54
2019-07-24 04:00:00 24.3 0 Calma 4 Nordeste 0 971.2 -0.9 50
2019-07-24 03:00:00 24.8 2 Oeste 6 Sudoeste 0 971.7 -0.1 49
2019-07-24 02:00:00 25.3 5 Sur 12 Oeste 0 972 0.7 48
2019-07-24 01:00:00 26.3 8 Sudoeste 13 Oeste 0 972.1 1.8 44
2019-07-24 00:00:00 28.1 10 Noroeste 25 Oeste 0 971.8 2 36
2019-07-23 23:00:00 30.1 15 Oeste 32 Sudoeste 0 971.3 1.8 29
2019-07-23 22:00:00 32.2 18 Oeste 32 Oeste 0 970.3 0.6 26
2019-07-23 21:00:00 33.7 22 Oeste 35 Sudoeste 0 969.8 -0.2 26
2019-07-23 20:00:00 35.4 23 Oeste 45 Sudoeste 0 969.5 -0.8 25
2019-07-23 19:00:00 35.7 24 Oeste 41 Sudoeste 0 969.7 -1.1 24
2019-07-23 18:00:00 35.8 23 Oeste 39 Oeste 0 970 -1 25
2019-07-23 17:00:00 36.2 18 Oeste 41 Oeste 0 970.3 -1.2 24
2019-07-23 16:00:00 35.7 22 Oeste 37 Sudoeste 0 970.8 -1.2 25
2019-07-23 15:00:00 35.2 20 Oeste 38 Oeste 0 971 -1.4 25
2019-07-23 14:00:00 33.5 19 Oeste 29 Oeste 0 971.5 -1 25
2019-07-23 13:00:00 32.1 12 Sudoeste 25 Sudoeste 0 972 -0.5 26
2019-07-23 12:00:00 29.7 11 Oeste 24 Sudoeste 0 972.4 0.1 33
2019-07-23 11:00:00 28.1 14 Sudoeste 30 Sudoeste 0 972.5 0.7 36
2019-07-23 10:00:00 25.6 5 Sudoeste 8 Oeste 0 972.5 0.8 38
2019-07-23 09:00:00 22.9 5 Este 9 Sudeste 0 972.3 0.8 42
2019-07-23 08:00:00 20.5 6 Este 9 Este 0 971.8 0.5 49
2019-07-23 07:00:00 21.1 2 Norte 8 Noroeste 0 971.7 -0.1 46
2019-07-23 06:00:00 22.4 4 Oeste 8 Noroeste 0 971.5 -1.1 43
2019-07-23 05:00:00 23.6 8 Noroeste 13 Oeste 0 971.3 -1.3 39
2019-07-23 04:00:00 23.9 9 Noroeste 14 Oeste 0 971.8 -0.6 36
2019-07-23 03:00:00 24.6 9 Oeste 23 Sudoeste 0 972.6 0.5 36
2019-07-23 02:00:00 25.9 17 Sudoeste 21 Sudoeste 0 972.6 1.1 32
2019-07-23 01:00:00 27.5 9 Sudoeste 23 Oeste 0 972.4 1.5 26
2019-07-23 00:00:00 29.5 15 Oeste 24 Sudoeste 0 972.1 1.7 23
2019-07-22 23:00:00 31.1 17 Oeste 32 Sudoeste 0 971.5 1.4 20
2019-07-22 22:00:00 33.2 11 Sudoeste 26 Oeste 0 970.9 0.4 19
2019-07-22 21:00:00 36 18 Oeste 27 Sudoeste 0 970.4 -0.5 14
2019-07-22 20:00:00 37.8 19 Oeste 31 Oeste 0 970.1 -1.2 14
2019-07-22 19:00:00 38.5 22 Oeste 39 Oeste 0 970.5 -1.4 14
2019-07-22 18:00:00 38.4 30 Oeste 49 Sudoeste 0 970.9 -1.7 14
2019-07-22 17:00:00 38.7 15 Oeste 30 Sudoeste 0 971.3 -1.9 14
2019-07-22 16:00:00 38.6 10 Sudoeste 26 Nordeste 0 971.9 -2 13
2019-07-22 15:00:00 37.2 10 Noroeste 26 Oeste 0 972.6 -1.4 15
2019-07-22 14:00:00 35.9 6 Norte 15 Sudoeste 0 973.2 -0.9 18
2019-07-22 13:00:00 34.8 6 Oeste 15 Sudoeste 0 973.9 -0.5 20
2019-07-22 12:00:00 31.7 5 Sudoeste 14 Sudoeste 0 974 -0.3 26
2019-07-22 11:00:00 28.3 10 Sudoeste 14 Sur 0 974.1 0.1 34
2019-07-22 10:00:00 25.1 3 Sur 9 Sudoeste 0 974.4 0.8 43
2019-07-22 09:00:00 22.8 4 Sur 6 Este 0 974.3 0.7 48
2019-07-22 08:00:00 21.1 2 Sur 9 Este 0 974 0.5 52
2019-07-22 07:00:00 21 9 Este 12 Este 0 973.6 -0.2 54
2019-07-22 06:00:00 22.2 4 Sudoeste 9 Este 0 973.6 -0.4 48
2019-07-22 05:00:00 23.7 5 Este 9 Este 0 973.5 -0.5 45
2019-07-22 04:00:00 24.5 3 Este 5 Este 0 973.8 -0.1 44
2019-07-22 03:00:00 25.1 4 Sur 10 Oeste 0 974 0.2 44
2019-07-22 02:00:00 25.8 5 Sudoeste 8 Sudoeste 0 974 0.9 37
2019-07-22 01:00:00 26.7 3 Este 17 Oeste 0 973.9 1.3 26
2019-07-22 00:00:00 29.1 12 Oeste 16 Noroeste 0 973.8 1.6 22
2019-07-21 23:00:00 30.6 10 Noroeste 16 Noroeste 0 973.1 1.4 18
2019-07-21 22:00:00 32.5 12 Oeste 26 Oeste 0 972.6 1 16
2019-07-21 21:00:00 35.1 16 Oeste 32 Oeste 0 972.2 0.3 13
2019-07-21 20:00:00 36.8 23 Sudoeste 33 Sudoeste 0 971.7 -0.6 11
2019-07-21 19:00:00 37.8 20 Oeste 31 Sudoeste 0 971.6 -1.3 11
2019-07-21 18:00:00 38.3 17 Oeste 30 Sudoeste 0 971.9 -1.3 10
2019-07-21 17:00:00 38.1 15 Sudoeste 38 Sudoeste 0 972.3 -1.1 10
2019-07-21 16:00:00 37.9 18 Oeste 38 Sudoeste 0 972.9 -0.7 11
2019-07-21 15:00:00 36.6 19 Oeste 31 Sudoeste 0 973.2 -0.6 12
2019-07-21 14:00:00 35.5 18 Oeste 28 Sudoeste 0 973.4 -0.3 12
2019-07-21 13:00:00 33.2 12 Sudoeste 19 Sudoeste 0 973.6 -0.3 18
2019-07-21 12:00:00 29.7 8 Sudoeste 14 Sudoeste 0 973.8 0.1 30
2019-07-21 11:00:00 25.7 6 Sudoeste 11 Sudoeste 0 973.7 0.4 42
2019-07-21 10:00:00 22.7 4 Sudeste 8 Este 0 973.9 0.8 50
2019-07-21 09:00:00 20.5 3 Este 5 Sudeste 0 973.7 0.5 57
2019-07-21 08:00:00 18.8 4 Sur 10 Sudoeste 0 973.3 0.3 63
2019-07-21 07:00:00 18.9 9 Sudoeste 10 Sudoeste 0 973.1 -0.1 61
2019-07-21 06:00:00 19.5 6 Oeste 17 Oeste 0 973.2 -0.1 59
2019-07-21 05:00:00 20.4 14 Oeste 19 Oeste 0 973 -0.3 55
2019-07-21 04:00:00 21.3 12 Sudoeste 18 Sudoeste 0 973.2 0.2 55
2019-07-21 03:00:00 22.6 13 Oeste 17 Sudoeste 0 973.3 0.8 50
2019-07-21 02:00:00 24.3 13 Sudoeste 24 Sudoeste 0 973.3 1.6 40
2019-07-21 01:00:00 26 18 Sudoeste 27 Oeste 0 973 2.2 29
2019-07-21 00:00:00 27.7 24 Oeste 40 Oeste 0 972.5 2.3 28
2019-07-20 23:00:00 29.9 25 Noroeste 37 Oeste 0 971.7 2 29
2019-07-20 22:00:00 32.3 15 Noroeste 36 Oeste 0 970.8 1.2 19
2019-07-20 21:00:00 34.6 26 Oeste 37 Oeste 0 970.2 0.4 16
2019-07-20 20:00:00 37.2 18 Oeste 31 Sudoeste 0 969.7 -0.2 14
2019-07-20 19:00:00 37.3 20 Oeste 37 Sudoeste 0 969.6 -0.6 13
2019-07-20 18:00:00 37.4 20 Sudoeste 33 Oeste 0 969.8 -0.8 14
2019-07-20 17:00:00 37.2 22 Oeste 33 Oeste 0 969.9 -1 14
2019-07-20 16:00:00 36.6 23 Oeste 36 Oeste 0 970.2 -0.8 13
2019-07-20 15:00:00 35.9 16 Sudoeste 31 Oeste 0 970.6 -0.4 13
2019-07-20 14:00:00 34.3 18 Oeste 28 Oeste 0 970.9 -0.2 11
2019-07-20 13:00:00 32.7 13 Sudoeste 27 Oeste 0 971 0 23
2019-07-20 12:00:00 28.9 13 Sudoeste 20 Sudoeste 0 971 0.2 33
2019-07-20 11:00:00 25.6 10 Sudoeste 15 Sudoeste 0 971.1 0.6 42
2019-07-20 10:00:00 22.7 8 Sudoeste 14 Sudoeste 0 971 1 50
2019-07-20 09:00:00 20.8 9 Sudoeste 14 Oeste 0 970.8 1 56
2019-07-20 08:00:00 19 10 Oeste 12 Oeste 0 970.5 0.9 64
2019-07-20 07:00:00 19.5 6 Sudoeste 12 Oeste 0 970 0.5 61
2019-07-20 06:00:00 20.3 8 Oeste 13 Oeste 0 969.8 0.6 60
2019-07-20 05:00:00 21.6 8 Oeste 15 Oeste 0 969.6 0.6 53
2019-07-20 04:00:00 23.3 7 Oeste 13 Oeste 0 969.5 0.5 46
2019-07-20 03:00:00 24.9 9 Oeste 18 Sudoeste 0 969.2 0.4 41
2019-07-20 02:00:00 26 10 Oeste 14 Sudoeste 0 969 0.8 38
2019-07-20 01:00:00 27.4 10 Sudoeste 15 Oeste 0 969 2 38
2019-07-20 00:00:00 28.9 13 Oeste 20 Oeste 0 968.8 2.2 34
2019-07-19 23:00:00 30.6 14 Oeste 41 Noroeste 0 968.2 1.8 31
2019-07-19 22:00:00 33 21 Oeste 37 Oeste 0 967 0.7 25
2019-07-19 21:00:00 36 20 Oeste 29 Oeste 0 966.6 -0.3 17
2019-07-19 20:00:00 37.5 22 Oeste 39 Sudoeste 0 966.4 -0.8 16
2019-07-19 19:00:00 38.3 23 Oeste 38 Oeste 0 966.3 -1.2 16
2019-07-19 18:00:00 37.5 13 Noroeste 24 Sudeste 0 966.9 -1.4 16
2019-07-19 17:00:00 38.4 9 Sur 27 Sur 0 967.2 -1.7 14
2019-07-19 16:00:00 38.5 10 Norte 34 Norte 0 967.5 -1.9 14
2019-07-19 15:00:00 37.6 8 Sudoeste 27 Sudoeste 0 968.3 -1.5 16
2019-07-19 14:00:00 36.7 4 Este 22 Sudeste 0 968.9 -1.2 17
2019-07-19 13:00:00 35.6 8 Nordeste 15 Nordeste 0 969.4 -0.8 18
2019-07-19 12:00:00 33 6 Sudoeste 11 Sudoeste 0 969.8 -0.4 21
2019-07-19 11:00:00 30.1 4 Este 8 Este 0 970.1 0.2 25
2019-07-19 10:00:00 24.8 5 Este 9 Este 0 970.2 0.7 36
2019-07-19 09:00:00 21.3 5 Sudeste 7 Este 0 970.2 0.7 48
2019-07-19 08:00:00 20 5 Sudeste 11 Este 0 969.9 0.2 50
2019-07-19 07:00:00 20.1 6 Este 8 Este 0 969.5 -0.5 50
2019-07-19 06:00:00 21.2 4 Sudeste 8 Sudoeste 0 969.5 -0.5 46
2019-07-19 05:00:00 22.3 5 Sudoeste 9 Oeste 0 969.7 -0.6 43
2019-07-19 04:00:00 23.2 8 Oeste 13 Oeste 0 970 -0.3 40
2019-07-19 03:00:00 24.3 6 Oeste 9 Oeste 0 970 0.1 38
2019-07-19 02:00:00 25.9 4 Noroeste 15 Noroeste 0 970.3 1.1 33
2019-07-19 01:00:00 27.5 4 Sudoeste 18 Sudoeste 0 970.3 1.6 31
2019-07-19 00:00:00 29 5 Noroeste 31 Noroeste 0 969.9 1.4 28